Old Larissa, Texas
Current Conditions -  °F | °C
As of 1:53 PM on Sunday 23 Nov 2014 (Local Time) from KTYR Reporting Station
Clear Clear  
Wind Chill: 73°   Ceiling: Unl
Heat Index: 73°   Visibility: 10mi
Dew Point: 55°   Wind: 14mph
Humidity: 53%   Direction: 220°SW
Pressure: 29.41"   Gusts: 25mph
Location:  32.1219°N, 95.3574°W
Report Text: KTYR 231953Z 22012G22KT 10SM CLR 23/13 A2941 RMK AO2 SLP952 T02280128
Loading
Personal Weather Stations






























Interactive Weather Map New forecast layout! Learn more

10-Day Weather Forecast

Advertisements
Track Severe Weather on mobile